createdAt,value
2023-03-17T00:00:12.723Z,1.50
2023-03-17T00:01:12.717Z,1.50
2023-03-17T00:02:12.849Z,1.30
2023-03-17T00:03:12.696Z,1.30
2023-03-17T00:04:12.697Z,1.50
2023-03-17T00:05:12.670Z,1.60
2023-03-17T00:06:12.650Z,1.40
2023-03-17T00:07:12.646Z,1.70
2023-03-17T00:08:12.657Z,1.50
2023-03-17T00:09:12.615Z,1.50
2023-03-17T00:10:12.635Z,1.40
2023-03-17T00:11:12.617Z,1.70
2023-03-17T00:12:12.576Z,1.60
2023-03-17T00:13:12.599Z,1.80
2023-03-17T00:14:12.571Z,1.70
2023-03-17T00:15:12.570Z,1.70
2023-03-17T00:16:12.603Z,1.90
2023-03-17T00:17:12.546Z,1.60
2023-03-17T00:18:12.553Z,1.70
2023-03-17T00:19:12.517Z,2.00
2023-03-17T00:20:12.495Z,1.80
2023-03-17T00:21:12.505Z,1.70
2023-03-17T00:22:12.503Z,1.70
2023-03-17T00:23:12.498Z,1.80
2023-03-17T00:24:14.719Z,1.80
2023-03-17T00:25:12.446Z,1.90
2023-03-17T00:26:12.462Z,1.60
2023-03-17T00:27:12.439Z,1.80
2023-03-17T00:28:12.441Z,1.90
2023-03-17T00:29:12.411Z,1.70
2023-03-17T00:30:12.429Z,1.80
2023-03-17T00:31:12.451Z,1.80
2023-03-17T00:32:12.384Z,1.70
2023-03-17T00:33:12.372Z,1.60
2023-03-17T00:34:12.392Z,1.70
2023-03-17T00:35:12.343Z,1.70
2023-03-17T00:36:12.354Z,1.80
2023-03-17T00:37:12.314Z,1.80
2023-03-17T00:38:12.375Z,1.60
2023-03-17T00:40:11.415Z,2.00
2023-03-17T00:41:12.286Z,1.80
2023-03-17T00:42:12.263Z,1.90
2023-03-17T00:43:12.304Z,1.70
2023-03-17T00:44:12.249Z,1.40
2023-03-17T00:45:12.222Z,1.60
2023-03-17T00:46:12.423Z,1.50
2023-03-17T00:47:12.239Z,1.60
2023-03-17T00:48:13.273Z,1.40
2023-03-17T00:49:12.230Z,1.50
2023-03-17T00:50:12.588Z,1.50
2023-03-17T00:51:12.174Z,1.50
2023-03-17T00:52:12.367Z,1.40
2023-03-17T00:53:12.243Z,1.70
2023-03-17T00:54:12.138Z,1.30
2023-03-17T00:55:12.137Z,1.60
2023-03-17T00:56:12.128Z,1.60
2023-03-17T00:57:12.132Z,1.40
2023-03-17T00:58:12.100Z,1.50
2023-03-17T00:59:12.105Z,1.40
2023-03-17T01:00:12.081Z,1.50
2023-03-17T01:01:12.186Z,1.40
2023-03-17T01:02:12.128Z,1.50
2023-03-17T01:03:12.083Z,1.70
2023-03-17T01:04:12.043Z,1.40
2023-03-17T01:05:12.028Z,1.60
2023-03-17T01:06:12.014Z,1.60
2023-03-17T01:07:12.004Z,1.90
2023-03-17T01:08:12.008Z,1.60
2023-03-17T01:09:11.973Z,1.30
2023-03-17T01:10:11.974Z,1.50
2023-03-17T01:11:11.955Z,1.70
2023-03-17T01:12:11.947Z,1.60
2023-03-17T01:13:11.954Z,1.40
2023-03-17T01:14:11.957Z,1.50
2023-03-17T01:15:11.924Z,1.50
2023-03-17T01:16:11.967Z,1.30
2023-03-17T01:17:11.931Z,1.40
2023-03-17T01:18:11.915Z,1.30
2023-03-17T01:19:11.966Z,1.40
2023-03-17T01:20:11.893Z,1.50
2023-03-17T01:21:11.856Z,1.10
2023-03-17T01:22:11.844Z,1.50
2023-03-17T01:23:11.851Z,1.50
2023-03-17T01:24:11.849Z,1.60
2023-03-17T01:25:11.820Z,1.30
2023-03-17T01:26:11.857Z,1.60
2023-03-17T01:27:11.806Z,1.70
2023-03-17T01:28:11.823Z,1.70
2023-03-17T01:29:11.762Z,1.50
2023-03-17T01:30:11.773Z,1.80
2023-03-17T01:31:11.778Z,1.50
2023-03-17T01:32:11.838Z,1.60
2023-03-17T01:33:11.738Z,1.30
2023-03-17T01:34:11.733Z,1.80
2023-03-17T01:35:11.727Z,1.90
2023-03-17T01:36:11.807Z,1.50
2023-03-17T01:37:11.685Z,1.70
2023-03-17T01:38:11.727Z,1.70
2023-03-17T01:39:11.688Z,1.80
2023-03-17T01:40:11.680Z,1.50
2023-03-17T01:41:11.675Z,1.50
2023-03-17T01:42:11.655Z,1.50
2023-03-17T01:43:11.773Z,1.70
2023-03-17T01:44:11.628Z,1.60
2023-03-17T01:45:11.614Z,1.60
2023-03-17T01:46:11.686Z,1.50
2023-03-17T01:47:11.582Z,1.40
2023-03-17T01:48:11.602Z,1.80
2023-03-17T01:49:11.584Z,1.50
2023-03-17T01:50:11.556Z,1.60
2023-03-17T01:51:11.542Z,1.60
2023-03-17T01:52:11.558Z,1.70
2023-03-17T01:53:11.544Z,1.40
2023-03-17T01:54:11.530Z,1.70
2023-03-17T01:55:11.512Z,1.60
2023-03-17T01:56:11.504Z,1.60
2023-03-17T01:57:11.538Z,1.80
2023-03-17T01:58:11.479Z,1.60
2023-03-17T01:59:11.474Z,1.80
2023-03-17T02:00:11.487Z,1.60
2023-03-17T02:01:11.471Z,1.70
2023-03-17T02:02:11.429Z,1.50
2023-03-17T02:03:11.427Z,1.60
2023-03-17T02:04:11.548Z,2.00
2023-03-17T02:05:17.407Z,1.40
2023-03-17T02:06:11.398Z,1.60
2023-03-17T02:07:11.383Z,2.00
2023-03-17T02:08:11.389Z,1.50
2023-03-17T02:09:11.357Z,1.60
2023-03-17T02:10:11.351Z,1.50
2023-03-17T02:11:11.361Z,1.80
2023-03-17T02:12:11.337Z,1.70
2023-03-17T02:13:11.332Z,1.60
2023-03-17T02:14:11.307Z,1.40
2023-03-17T02:15:11.321Z,1.60
2023-03-17T02:16:11.417Z,1.60
2023-03-17T02:17:11.313Z,1.40
2023-03-17T02:18:11.304Z,1.80
2023-03-17T02:19:11.262Z,1.70
2023-03-17T02:20:11.253Z,1.40
2023-03-17T02:21:11.239Z,1.40
2023-03-17T02:22:11.234Z,1.30
2023-03-17T02:23:11.214Z,1.60
2023-03-17T02:24:11.218Z,1.50
2023-03-17T02:25:11.223Z,1.30
2023-03-17T02:26:11.192Z,1.30
2023-03-17T02:27:11.166Z,1.40
2023-03-17T02:28:11.197Z,1.60
2023-03-17T02:29:11.151Z,1.20
2023-03-17T02:30:11.216Z,1.50
2023-03-17T02:31:11.215Z,1.20
2023-03-17T02:32:11.124Z,1.30
2023-03-17T02:33:11.152Z,1.40
2023-03-17T02:34:11.121Z,1.60
2023-03-17T02:35:11.119Z,1.50
2023-03-17T02:36:11.109Z,1.30
2023-03-17T02:37:11.090Z,1.20
2023-03-17T02:38:11.103Z,1.50
2023-03-17T02:39:11.117Z,1.30
2023-03-17T02:40:11.037Z,1.40
2023-03-17T02:41:11.028Z,1.00
2023-03-17T02:42:11.037Z,1.10
2023-03-17T02:43:11.044Z,1.20
2023-03-17T02:44:11.017Z,1.20
2023-03-17T02:45:10.980Z,1.10
2023-03-17T02:46:11.090Z,1.00
2023-03-17T02:47:10.998Z,1.50
2023-03-17T02:48:10.978Z,1.10
2023-03-17T02:49:10.961Z,1.20
2023-03-17T02:50:10.959Z,1.30
2023-03-17T02:51:10.933Z,1.30
2023-03-17T02:52:10.939Z,1.40
2023-03-17T02:53:10.972Z,1.20
2023-03-17T02:54:10.926Z,1.30
2023-03-17T02:55:10.901Z,1.20
2023-03-17T02:56:10.916Z,1.10
2023-03-17T02:57:10.874Z,1.30
2023-03-17T02:58:10.868Z,1.30
2023-03-17T02:59:10.841Z,1.20
2023-03-17T03:00:10.870Z,1.30
2023-03-17T03:01:10.844Z,1.50
2023-03-17T03:02:10.871Z,1.30
2023-03-17T03:03:10.806Z,1.10
2023-03-17T03:04:10.791Z,1.40
2023-03-17T03:05:10.877Z,1.20
2023-03-17T03:06:10.811Z,1.10
2023-03-17T03:07:10.753Z,1.30
2023-03-17T03:08:10.786Z,1.10
2023-03-17T03:09:10.755Z,1.20
2023-03-17T03:10:10.736Z,1.30
2023-03-17T03:11:10.717Z,1.20
2023-03-17T03:12:10.720Z,1.30
2023-03-17T03:13:10.718Z,1.20
2023-03-17T03:14:10.715Z,1.30
2023-03-17T03:15:10.704Z,1.30
2023-03-17T03:16:10.734Z,1.40
2023-03-17T03:17:10.672Z,1.20
2023-03-17T03:18:10.665Z,1.20
2023-03-17T03:19:10.648Z,1.10
2023-03-17T03:20:10.627Z,1.10
2023-03-17T03:21:10.633Z,1.20
2023-03-17T03:22:10.610Z,1.20
2023-03-17T03:23:11.110Z,1.30
2023-03-17T03:24:10.606Z,1.20
2023-03-17T03:25:10.584Z,1.10
2023-03-17T03:26:10.587Z,1.30
2023-03-17T03:27:10.569Z,1.00
2023-03-17T03:28:10.584Z,1.30
2023-03-17T03:29:10.568Z,1.20
2023-03-17T03:30:10.553Z,1.30
2023-03-17T03:31:10.574Z,1.30
2023-03-17T03:32:10.519Z,1.30
2023-03-17T03:33:10.506Z,1.10
2023-03-17T03:34:10.524Z,1.20
2023-03-17T03:35:10.506Z,1.30
2023-03-17T03:36:10.557Z,1.20
2023-03-17T03:37:10.472Z,1.20
2023-03-17T03:38:10.466Z,1.20
2023-03-17T03:39:12.454Z,1.00
2023-03-17T03:40:10.477Z,1.10
2023-03-17T03:41:10.445Z,1.10
2023-03-17T03:42:10.407Z,1.40
2023-03-17T03:43:22.460Z,1.20
2023-03-17T03:44:10.406Z,1.20
2023-03-17T03:45:10.397Z,1.10
2023-03-17T03:46:10.421Z,1.10
2023-03-17T03:47:10.349Z,1.20
2023-03-17T03:48:10.418Z,1.20
2023-03-17T03:49:10.349Z,1.10
2023-03-17T03:50:10.351Z,1.20
2023-03-17T03:51:10.316Z,1.20
2023-03-17T03:52:10.297Z,1.10
2023-03-17T03:53:10.310Z,1.50
2023-03-17T03:54:10.286Z,1.10
2023-03-17T03:55:10.300Z,1.30
2023-03-17T03:56:10.252Z,0.90
2023-03-17T03:57:10.253Z,1.20
2023-03-17T03:58:10.247Z,1.10
2023-03-17T03:59:10.254Z,1.20
2023-03-17T04:00:10.213Z,1.20
2023-03-17T04:01:10.199Z,1.20
2023-03-17T04:02:10.197Z,1.30
2023-03-17T04:03:10.293Z,1.00
2023-03-17T04:04:10.202Z,1.20
2023-03-17T04:05:10.160Z,1.00
2023-03-17T04:06:10.144Z,1.00
2023-03-17T04:07:10.134Z,1.10
2023-03-17T04:08:10.135Z,0.90
2023-03-17T04:09:10.224Z,0.90
2023-03-17T04:10:10.124Z,1.20
2023-03-17T04:11:10.110Z,1.00
2023-03-17T04:12:10.142Z,1.00
2023-03-17T04:13:10.126Z,1.00
2023-03-17T04:14:10.115Z,1.00
2023-03-17T04:15:10.111Z,1.10
2023-03-17T04:16:10.072Z,0.90
2023-03-17T04:17:10.052Z,1.20
2023-03-17T04:18:10.049Z,1.30
2023-03-17T04:19:10.115Z,1.20
2023-03-17T04:20:10.051Z,1.10
2023-03-17T04:21:10.011Z,1.30
2023-03-17T04:22:09.998Z,1.20
2023-03-17T04:23:09.976Z,1.10
2023-03-17T04:24:09.966Z,1.00
2023-03-17T04:25:09.941Z,1.10
2023-03-17T04:26:10.002Z,0.90
2023-03-17T04:27:09.956Z,0.90
2023-03-17T04:28:09.931Z,1.20
2023-03-17T04:29:09.937Z,1.10
2023-03-17T04:30:09.892Z,0.90
2023-03-17T04:31:09.953Z,1.00
2023-03-17T04:32:09.905Z,1.00
2023-03-17T04:33:09.911Z,0.90
2023-03-17T04:34:09.884Z,1.10
2023-03-17T04:35:09.836Z,1.70
2023-03-17T04:36:09.905Z,1.30
2023-03-17T04:37:09.834Z,1.30
2023-03-17T04:38:09.810Z,1.20
2023-03-17T04:39:09.864Z,1.30
2023-03-17T04:40:09.829Z,1.00
2023-03-17T04:41:09.776Z,1.10
2023-03-17T04:42:09.784Z,0.90
2023-03-17T04:43:09.768Z,1.00
2023-03-17T04:44:09.806Z,1.10
2023-03-17T04:45:09.763Z,1.20
2023-03-17T04:46:09.797Z,1.10
2023-03-17T04:47:09.723Z,1.20
2023-03-17T04:48:09.710Z,1.00
2023-03-17T04:49:09.750Z,1.20
2023-03-17T04:50:09.699Z,0.90
2023-03-17T04:51:11.660Z,1.10
2023-03-17T04:52:09.664Z,1.00
2023-03-17T04:53:09.667Z,1.20
2023-03-17T04:54:09.698Z,1.10
2023-03-17T04:55:09.636Z,0.80
2023-03-17T04:56:09.689Z,1.20
2023-03-17T04:57:09.644Z,1.00
2023-03-17T04:58:11.786Z,1.10
2023-03-17T04:59:10.110Z,0.90
2023-03-17T05:00:09.616Z,1.20
2023-03-17T05:01:09.644Z,1.30
2023-03-17T05:02:09.641Z,1.10
2023-03-17T05:03:24.088Z,1.20
2023-03-17T05:04:11.137Z,1.10
2023-03-17T05:05:09.500Z,1.10
2023-03-17T05:06:09.473Z,1.10
2023-03-17T05:07:09.496Z,1.10
2023-03-17T05:08:09.448Z,0.90
2023-03-17T05:09:09.469Z,1.00
2023-03-17T05:10:09.432Z,0.90
2023-03-17T05:11:09.492Z,1.10
2023-03-17T05:12:09.409Z,1.00
2023-03-17T05:13:09.420Z,1.00
2023-03-17T05:14:09.436Z,1.00
2023-03-17T05:15:09.393Z,1.00
2023-03-17T05:16:09.484Z,1.10
2023-03-17T05:17:09.348Z,1.00
2023-03-17T05:18:09.362Z,1.00
2023-03-17T05:19:09.360Z,0.90
2023-03-17T05:20:09.340Z,1.10
2023-03-17T05:21:09.344Z,1.20
2023-03-17T05:22:09.297Z,1.00
2023-03-17T05:23:09.299Z,1.00
2023-03-17T05:24:09.297Z,1.10
2023-03-17T05:25:09.293Z,1.30
2023-03-17T05:26:09.263Z,1.20
2023-03-17T05:27:09.273Z,1.20
2023-03-17T05:28:09.278Z,1.00
2023-03-17T05:29:09.252Z,1.10
2023-03-17T05:30:09.226Z,1.40
2023-03-17T05:31:10.913Z,1.30
2023-03-17T05:32:09.229Z,1.00
2023-03-17T05:33:09.187Z,1.10
2023-03-17T05:34:09.223Z,1.30
2023-03-17T05:35:09.189Z,1.20
2023-03-17T05:36:09.195Z,1.50
2023-03-17T05:37:09.175Z,1.20
2023-03-17T05:38:09.148Z,1.30
2023-03-17T05:39:09.158Z,1.10
2023-03-17T05:40:09.136Z,1.20
2023-03-17T05:41:09.114Z,1.40
2023-03-17T05:42:09.122Z,1.50
2023-03-17T05:43:09.089Z,1.30
2023-03-17T05:44:09.093Z,1.10
2023-03-17T05:45:09.072Z,1.10
2023-03-17T05:46:09.122Z,1.20
2023-03-17T05:47:09.044Z,1.10
2023-03-17T05:48:09.033Z,1.20
2023-03-17T05:49:09.055Z,1.20
2023-03-17T05:50:09.025Z,1.30
2023-03-17T05:51:09.038Z,1.00
2023-03-17T05:52:09.006Z,1.10
2023-03-17T05:53:08.996Z,1.00
2023-03-17T05:54:08.987Z,0.90
2023-03-17T05:55:08.987Z,1.00
2023-03-17T05:56:08.968Z,1.20
2023-03-17T05:57:08.949Z,1.10
2023-03-17T05:58:08.945Z,1.40
2023-03-17T05:59:08.960Z,1.20
2023-03-17T06:00:09.472Z,1.00
2023-03-17T06:01:08.935Z,1.10
2023-03-17T06:02:08.981Z,1.20
2023-03-17T06:03:08.956Z,1.40
2023-03-17T06:04:08.939Z,1.70
2023-03-17T06:05:08.908Z,1.20
2023-03-17T06:06:08.875Z,1.30
2023-03-17T06:07:08.871Z,1.10
2023-03-17T06:08:08.837Z,1.10
2023-03-17T06:09:08.885Z,0.90
2023-03-17T06:10:08.836Z,1.20
2023-03-17T06:11:08.828Z,0.90
2023-03-17T06:12:08.832Z,1.10
2023-03-17T06:13:08.805Z,1.00
2023-03-17T06:14:08.817Z,1.20
2023-03-17T06:15:08.772Z,0.90
2023-03-17T06:16:08.922Z,1.10
2023-03-17T06:17:08.770Z,1.00
2023-03-17T06:18:08.741Z,1.00
2023-03-17T06:19:08.749Z,1.10
2023-03-17T06:20:08.736Z,1.10
2023-03-17T06:21:08.756Z,1.00
2023-03-17T06:22:08.817Z,1.00
2023-03-17T06:23:08.718Z,1.10
2023-03-17T06:24:08.704Z,1.20
2023-03-17T06:25:08.677Z,1.20
2023-03-17T06:26:08.674Z,0.80
2023-03-17T06:27:08.662Z,1.00
2023-03-17T06:28:08.645Z,1.20
2023-03-17T06:29:08.650Z,1.00
2023-03-17T06:30:08.666Z,1.00
2023-03-17T06:31:08.661Z,1.10
2023-03-17T06:32:19.878Z,1.20
2023-03-17T06:33:08.874Z,1.20
2023-03-17T06:34:08.611Z,1.10
2023-03-17T06:35:08.620Z,1.40
2023-03-17T06:36:08.797Z,1.70
2023-03-17T06:37:08.574Z,1.70
2023-03-17T06:38:08.554Z,2.20
2023-03-17T06:39:08.584Z,1.60
2023-03-17T06:40:08.529Z,1.60
2023-03-17T06:41:08.521Z,1.60
2023-03-17T06:42:08.532Z,1.40
2023-03-17T06:43:08.507Z,1.70
2023-03-17T06:44:08.525Z,2.20
2023-03-17T06:45:08.491Z,2.60
2023-03-17T06:46:08.609Z,2.60
2023-03-17T06:47:08.466Z,2.90
2023-03-17T06:48:08.494Z,2.80
2023-03-17T06:49:08.652Z,2.80
2023-03-17T06:50:08.451Z,3.10
2023-03-17T06:51:08.410Z,3.10
2023-03-17T06:52:08.391Z,3.00
2023-03-17T06:53:08.385Z,3.10
2023-03-17T06:54:08.408Z,3.20
2023-03-17T06:55:08.382Z,2.90
2023-03-17T06:56:20.005Z,2.70
2023-03-17T06:57:08.366Z,2.60
2023-03-17T06:58:08.334Z,2.20
2023-03-17T06:59:08.335Z,2.30
2023-03-17T07:00:08.343Z,1.90
2023-03-17T07:01:08.313Z,2.20
2023-03-17T07:02:08.369Z,2.50
2023-03-17T07:03:08.289Z,1.60
2023-03-17T07:04:08.313Z,2.00
2023-03-17T07:05:08.294Z,2.10
2023-03-17T07:06:08.265Z,1.40
2023-03-17T07:07:08.255Z,1.60
2023-03-17T07:08:08.262Z,1.50
2023-03-17T07:09:08.245Z,1.10
2023-03-17T07:10:08.202Z,1.50
2023-03-17T07:11:08.215Z,1.20
2023-03-17T07:12:08.198Z,1.00
2023-03-17T07:13:08.196Z,0.90
2023-03-17T07:14:08.177Z,1.20
2023-03-17T07:15:08.154Z,1.10
2023-03-17T07:16:08.206Z,1.20
2023-03-17T07:17:08.150Z,1.20
2023-03-17T07:18:08.131Z,1.00
2023-03-17T07:19:08.134Z,0.90
2023-03-17T07:20:08.094Z,0.90
2023-03-17T07:21:08.093Z,1.40
2023-03-17T07:22:08.082Z,0.90
2023-03-17T07:23:08.092Z,0.90
2023-03-17T07:24:08.057Z,0.80
2023-03-17T07:25:08.059Z,0.80
2023-03-17T07:26:08.103Z,1.00
2023-03-17T07:27:08.030Z,1.00
2023-03-17T07:28:08.036Z,0.70
2023-03-17T07:29:08.032Z,1.00
2023-03-17T07:30:08.004Z,1.00
2023-03-17T07:31:08.108Z,0.90
2023-03-17T07:32:07.999Z,1.10
2023-03-17T07:33:08.090Z,0.80
2023-03-17T07:34:07.990Z,1.00
2023-03-17T07:35:08.003Z,0.80
2023-03-17T07:36:08.074Z,1.10
2023-03-17T07:37:07.970Z,0.90
2023-03-17T07:38:07.944Z,0.90
2023-03-17T07:39:10.157Z,0.80
2023-03-17T07:40:07.899Z,0.80
2023-03-17T07:41:07.891Z,0.90
2023-03-17T07:42:07.880Z,0.90
2023-03-17T07:43:07.916Z,0.80
2023-03-17T07:44:07.879Z,0.90
2023-03-17T07:45:07.865Z,1.00
2023-03-17T07:46:07.873Z,0.80
2023-03-17T07:47:07.858Z,1.00
2023-03-17T07:48:07.830Z,0.90
2023-03-17T07:49:07.800Z,0.90
2023-03-17T07:50:07.798Z,0.80
2023-03-17T07:51:07.812Z,0.80
2023-03-17T07:52:07.918Z,0.70
2023-03-17T07:53:07.808Z,0.90
2023-03-17T07:54:07.763Z,1.00
2023-03-17T07:55:07.748Z,1.00
2023-03-17T07:56:07.743Z,1.00
2023-03-17T07:57:07.730Z,1.10
2023-03-17T07:58:07.818Z,1.10
2023-03-17T07:59:07.770Z,0.70
2023-03-17T08:00:07.699Z,1.10
2023-03-17T08:01:07.691Z,1.10
2023-03-17T08:02:07.737Z,0.80
2023-03-17T08:03:10.553Z,0.90
2023-03-17T08:04:07.756Z,0.90
2023-03-17T08:05:07.717Z,0.90
2023-03-17T08:06:07.668Z,0.80
2023-03-17T08:07:07.648Z,0.90
2023-03-17T08:08:07.618Z,0.90
2023-03-17T08:09:07.623Z,0.80
2023-03-17T08:10:07.623Z,1.00
2023-03-17T08:11:07.606Z,0.80
2023-03-17T08:12:07.566Z,0.60
2023-03-17T08:13:07.614Z,1.20
2023-03-17T08:14:07.548Z,0.80
2023-03-17T08:15:07.574Z,0.90
2023-03-17T08:16:07.631Z,0.80
2023-03-17T08:17:07.563Z,0.90
2023-03-17T08:18:07.552Z,0.80
2023-03-17T08:19:07.532Z,0.90
2023-03-17T08:20:07.511Z,1.00
2023-03-17T08:21:07.477Z,1.00
2023-03-17T08:22:07.506Z,0.80
2023-03-17T08:23:07.479Z,0.80
2023-03-17T08:24:07.466Z,0.80
2023-03-17T08:25:07.451Z,0.80
2023-03-17T08:26:08.113Z,1.50
2023-03-17T08:27:07.411Z,0.90
2023-03-17T08:28:07.411Z,0.90
2023-03-17T08:29:07.451Z,0.70
2023-03-17T08:30:07.370Z,0.80
2023-03-17T08:31:08.760Z,0.90
2023-03-17T08:32:07.374Z,0.60
2023-03-17T08:33:07.434Z,0.60
2023-03-17T08:34:07.365Z,0.90
2023-03-17T08:35:07.340Z,0.70
2023-03-17T08:36:07.324Z,1.00
2023-03-17T08:37:10.058Z,0.70
2023-03-17T08:38:07.302Z,1.10
2023-03-17T08:39:07.309Z,0.80
2023-03-17T08:40:07.296Z,0.60
2023-03-17T08:41:07.294Z,0.80
2023-03-17T08:42:07.272Z,0.90
2023-03-17T08:43:07.249Z,0.80
2023-03-17T08:44:07.264Z,0.80
2023-03-17T08:45:07.241Z,0.80
2023-03-17T08:46:07.283Z,0.90
2023-03-17T08:47:07.228Z,0.80
2023-03-17T08:48:07.204Z,0.70
2023-03-17T08:49:07.198Z,0.70
2023-03-17T08:50:07.178Z,0.90
2023-03-17T08:51:07.165Z,0.60
2023-03-17T08:52:07.188Z,0.90
2023-03-17T08:53:07.153Z,0.60
2023-03-17T08:54:07.150Z,0.60
2023-03-17T08:55:07.135Z,0.70
2023-03-17T08:56:07.143Z,0.60
2023-03-17T08:57:07.118Z,0.70
2023-03-17T08:58:07.115Z,0.70
2023-03-17T08:59:07.107Z,0.80
2023-03-17T09:00:07.071Z,0.70
2023-03-17T09:01:07.252Z,0.90
2023-03-17T09:02:07.112Z,1.00
2023-03-17T09:03:07.056Z,1.10
2023-03-17T09:04:07.060Z,0.80
2023-03-17T09:05:07.044Z,0.70
2023-03-17T09:06:07.030Z,0.90
2023-03-17T09:07:09.612Z,0.70
2023-03-17T09:08:07.065Z,0.70
2023-03-17T09:09:07.016Z,0.80
2023-03-17T09:10:06.998Z,0.90
2023-03-17T09:11:06.965Z,0.60
2023-03-17T09:12:06.954Z,0.80
2023-03-17T09:13:07.019Z,0.80
2023-03-17T09:14:06.929Z,0.90
2023-03-17T09:15:06.936Z,0.60
2023-03-17T09:16:06.963Z,0.80
2023-03-17T09:17:06.903Z,0.80
2023-03-17T09:18:06.930Z,0.80
2023-03-17T09:19:06.889Z,0.80
2023-03-17T09:20:06.888Z,0.90
2023-03-17T09:21:06.883Z,0.90
2023-03-17T09:22:06.856Z,0.80
2023-03-17T09:23:06.861Z,0.60
2023-03-17T09:24:06.841Z,0.90
2023-03-17T09:25:06.837Z,0.90
2023-03-17T09:26:06.813Z,1.20
2023-03-17T09:27:06.820Z,0.70
2023-03-17T09:28:06.936Z,0.80
2023-03-17T09:29:06.775Z,0.70
2023-03-17T09:30:06.779Z,0.90
2023-03-17T09:31:06.807Z,0.90
2023-03-17T09:32:06.749Z,0.80
2023-03-17T09:33:06.825Z,0.80
2023-03-17T09:34:06.733Z,0.90
2023-03-17T09:35:06.712Z,0.70
2023-03-17T09:36:06.744Z,0.80
2023-03-17T09:37:06.708Z,0.80
2023-03-17T09:38:06.700Z,0.80
2023-03-17T09:39:06.679Z,0.90
2023-03-17T09:40:06.676Z,1.00
2023-03-17T09:41:06.655Z,0.90
2023-03-17T09:42:06.665Z,0.80
2023-03-17T09:43:06.669Z,0.90
2023-03-17T09:44:06.680Z,0.70
2023-03-17T09:45:06.625Z,0.80
2023-03-17T09:46:06.613Z,0.70
2023-03-17T09:47:06.604Z,0.80
2023-03-17T09:48:06.599Z,0.90
2023-03-17T09:49:06.588Z,0.70
2023-03-17T09:50:06.572Z,0.70
2023-03-17T09:51:06.569Z,0.60
2023-03-17T09:52:06.561Z,0.70
2023-03-17T09:53:06.533Z,0.70
2023-03-17T09:54:06.531Z,0.90
2023-03-17T09:55:06.521Z,0.80
2023-03-17T09:56:06.500Z,0.80
2023-03-17T09:57:06.488Z,0.80
2023-03-17T09:58:06.499Z,0.90
2023-03-17T09:59:06.469Z,0.80
2023-03-17T10:00:06.518Z,0.60
2023-03-17T10:01:06.468Z,0.70
2023-03-17T10:02:06.535Z,0.60
2023-03-17T10:03:06.450Z,0.70
2023-03-17T10:04:06.443Z,0.70
2023-03-17T10:05:06.455Z,0.70
2023-03-17T10:06:06.405Z,0.80
2023-03-17T10:07:06.378Z,0.80
2023-03-17T10:08:15.644Z,0.70
2023-03-17T10:09:06.392Z,0.60
2023-03-17T10:10:06.364Z,0.70
2023-03-17T10:11:06.366Z,0.70
2023-03-17T10:12:06.358Z,0.80
2023-03-17T10:13:06.347Z,0.40
2023-03-17T10:14:06.367Z,0.50
2023-03-17T10:15:06.346Z,0.60
2023-03-17T10:16:06.325Z,0.70
2023-03-17T10:17:06.384Z,0.50
2023-03-17T10:18:06.355Z,0.50
2023-03-17T10:19:06.356Z,0.50
2023-03-17T10:20:06.274Z,0.60
2023-03-17T10:21:06.343Z,0.50
2023-03-17T10:22:06.244Z,0.60
2023-03-17T10:23:06.237Z,0.70
2023-03-17T10:24:06.228Z,0.60
2023-03-17T10:25:06.191Z,0.50
2023-03-17T10:26:06.203Z,0.50
2023-03-17T10:27:06.182Z,0.50
2023-03-17T10:28:08.867Z,0.60
2023-03-17T10:29:06.181Z,0.50
2023-03-17T10:30:06.191Z,0.30
2023-03-17T10:31:06.183Z,0.30
2023-03-17T10:32:06.142Z,0.40
2023-03-17T10:33:06.338Z,0.50
2023-03-17T10:34:06.104Z,0.60
2023-03-17T10:35:06.093Z,0.60
2023-03-17T10:36:06.127Z,0.60
2023-03-17T10:37:06.066Z,0.50
2023-03-17T10:38:14.447Z,0.50
2023-03-17T10:39:06.065Z,0.40
2023-03-17T10:40:06.050Z,0.40
2023-03-17T10:41:06.032Z,0.40
2023-03-17T10:42:06.034Z,0.30
2023-03-17T10:43:06.026Z,0.50
2023-03-17T10:44:06.000Z,0.40
2023-03-17T10:45:06.017Z,0.40
2023-03-17T10:46:06.013Z,0.40
2023-03-17T10:47:06.028Z,0.50
2023-03-17T10:48:05.983Z,1.00
2023-03-17T10:49:05.982Z,0.40
2023-03-17T10:50:05.950Z,0.40
2023-03-17T10:51:05.956Z,0.40
2023-03-17T10:52:05.935Z,0.50
2023-03-17T10:53:05.950Z,0.50
2023-03-17T10:54:05.916Z,0.60
2023-03-17T10:55:05.922Z,0.60
2023-03-17T10:56:05.886Z,0.70
2023-03-17T10:57:05.891Z,0.50
2023-03-17T10:58:05.900Z,0.50
2023-03-17T10:59:05.845Z,0.50
2023-03-17T11:00:05.877Z,0.50
2023-03-17T11:01:06.014Z,0.50
2023-03-17T11:02:05.818Z,0.50
2023-03-17T11:03:05.824Z,0.30
2023-03-17T11:04:05.861Z,0.40
2023-03-17T11:05:05.793Z,0.50
2023-03-17T11:06:05.803Z,0.40
2023-03-17T11:07:05.783Z,0.40
2023-03-17T11:08:05.824Z,0.40
2023-03-17T11:09:05.759Z,0.40
2023-03-17T11:10:05.752Z,0.60
2023-03-17T11:11:05.740Z,0.50
2023-03-17T11:12:05.736Z,0.60
2023-03-17T11:13:05.731Z,0.50
2023-03-17T11:14:05.718Z,0.60
2023-03-17T11:15:05.697Z,0.70
2023-03-17T11:16:05.712Z,0.80
2023-03-17T11:17:05.678Z,0.80
2023-03-17T11:18:05.681Z,0.50
2023-03-17T11:19:05.639Z,0.70
2023-03-17T11:20:05.662Z,0.60
2023-03-17T11:21:05.637Z,0.70
2023-03-17T11:22:05.657Z,0.70
2023-03-17T11:23:05.609Z,0.60
2023-03-17T11:24:05.625Z,0.70
2023-03-17T11:25:05.586Z,0.60
2023-03-17T11:26:05.589Z,0.60
2023-03-17T11:27:05.580Z,0.40
2023-03-17T11:28:05.586Z,0.60
2023-03-17T11:29:05.549Z,0.50
2023-03-17T11:30:05.570Z,0.50
2023-03-17T11:31:05.518Z,0.50
2023-03-17T11:32:05.749Z,0.40
2023-03-17T11:33:05.589Z,0.50
2023-03-17T11:34:05.510Z,0.50
2023-03-17T11:35:05.487Z,0.70
2023-03-17T11:36:05.512Z,0.50
2023-03-17T11:37:05.456Z,0.50
2023-03-17T11:38:05.467Z,0.30
2023-03-17T11:39:05.462Z,0.70
2023-03-17T11:40:05.427Z,0.50
2023-03-17T11:41:05.409Z,0.50
2023-03-17T11:42:05.411Z,0.80
2023-03-17T11:43:05.463Z,0.60
2023-03-17T11:44:05.395Z,0.60
2023-03-17T11:45:05.391Z,0.60
2023-03-17T11:46:05.451Z,0.50
2023-03-17T11:47:05.381Z,0.60
2023-03-17T11:48:05.371Z,0.30
2023-03-17T11:49:05.372Z,0.50
2023-03-17T11:50:05.353Z,0.60
2023-03-17T11:51:05.321Z,0.60
2023-03-17T11:52:05.302Z,0.60
2023-03-17T11:53:05.319Z,0.50
2023-03-17T11:54:05.286Z,0.60
2023-03-17T11:55:05.297Z,0.40
2023-03-17T11:56:05.285Z,0.40
2023-03-17T11:57:05.301Z,0.40
2023-03-17T11:58:05.266Z,0.40
2023-03-17T11:59:05.279Z,1.20
2023-03-17T12:00:05.224Z,0.50
2023-03-17T12:01:05.206Z,0.50
2023-03-17T12:02:05.228Z,0.40
2023-03-17T12:03:05.256Z,0.60
2023-03-17T12:04:05.299Z,0.60
2023-03-17T12:05:05.198Z,0.40
2023-03-17T12:06:05.178Z,0.50
2023-03-17T12:07:05.138Z,0.60
2023-03-17T12:08:05.154Z,0.40
2023-03-17T12:09:05.126Z,0.50
2023-03-17T12:10:05.177Z,0.50
2023-03-17T12:11:05.099Z,0.50
2023-03-17T12:12:05.100Z,0.40
2023-03-17T12:13:05.147Z,0.50
2023-03-17T12:14:05.080Z,0.50
2023-03-17T12:15:05.060Z,0.30
2023-03-17T12:16:05.119Z,0.50
2023-03-17T12:17:05.101Z,0.40
2023-03-17T12:18:05.037Z,0.50
2023-03-17T12:19:05.034Z,0.60
2023-03-17T12:20:05.025Z,0.50
2023-03-17T12:21:05.011Z,0.40
2023-03-17T12:22:04.985Z,0.50
2023-03-17T12:23:05.001Z,0.50
2023-03-17T12:24:04.990Z,0.50
2023-03-17T12:25:04.959Z,0.30
2023-03-17T12:26:04.968Z,0.40
2023-03-17T12:27:04.937Z,0.50
2023-03-17T12:28:04.938Z,0.30
2023-03-17T12:29:04.941Z,0.50
2023-03-17T12:30:04.921Z,0.40
2023-03-17T12:31:05.008Z,0.50
2023-03-17T12:32:04.881Z,0.50
2023-03-17T12:33:04.935Z,0.40
2023-03-17T12:34:04.875Z,0.40
2023-03-17T12:35:04.849Z,0.50
2023-03-17T12:36:04.892Z,0.50
2023-03-17T12:37:04.829Z,0.60
2023-03-17T12:38:04.840Z,0.40
2023-03-17T12:39:04.806Z,0.30
2023-03-17T12:40:04.808Z,0.30
2023-03-17T12:41:04.797Z,0.40
2023-03-17T12:42:04.797Z,0.60
2023-03-17T12:43:04.806Z,0.40
2023-03-17T12:44:04.786Z,0.50
2023-03-17T12:45:04.821Z,0.50
2023-03-17T12:46:04.789Z,0.40
2023-03-17T12:47:04.746Z,0.40
2023-03-17T12:48:04.734Z,0.40
2023-03-17T12:49:04.735Z,0.60
2023-03-17T12:50:04.708Z,0.40
2023-03-17T12:51:04.715Z,0.50
2023-03-17T12:52:04.701Z,0.30
2023-03-17T12:53:04.693Z,0.40
2023-03-17T12:54:04.682Z,0.30
2023-03-17T12:55:04.638Z,0.50
2023-03-17T12:56:05.587Z,0.50
2023-03-17T12:57:04.624Z,0.40
2023-03-17T12:58:04.640Z,0.30
2023-03-17T12:59:04.623Z,0.50
2023-03-17T13:00:04.594Z,0.30
2023-03-17T13:01:04.592Z,0.50
2023-03-17T13:02:04.595Z,0.30
2023-03-17T13:03:04.607Z,0.40
2023-03-17T13:04:04.580Z,0.50
2023-03-17T13:05:04.622Z,0.50
2023-03-17T13:06:04.527Z,0.40
2023-03-17T13:07:04.517Z,0.40
2023-03-17T13:08:04.546Z,0.50
2023-03-17T13:09:04.532Z,0.30
2023-03-17T13:10:04.520Z,0.50
2023-03-17T13:11:04.504Z,0.40
2023-03-17T13:12:04.479Z,0.50
2023-03-17T13:13:04.498Z,0.40
2023-03-17T13:14:04.475Z,0.40
2023-03-17T13:15:04.713Z,0.30
2023-03-17T13:16:04.559Z,0.30
2023-03-17T13:17:04.419Z,0.50
2023-03-17T13:18:04.433Z,0.30
2023-03-17T13:19:04.417Z,0.50